Hlavní strana
METAR-TAF:

METAR-TAF

Letiště :

Letiště Řím-Fiumicino

Řím-Fiumicino, Itálie

zeměpisná šířka: 41-48N, zeměpisná délka: 012-14E, výška: 2 m

Aktuální stav počasí

Zpráva byla vytvořena před 30 minutami, v 22:20 UTC
Východní vítr 3 kt
Teplota 9°C
Vlhkost vzduchu 87%
Tlak 1010 hPa
Viditelnost 10 km a více
Žádná oblačnost pod 1500 m, nevyskytují se cumulonimby.

METAR: LIRF 252220Z 08003KT CAVOK 09/07 Q1010 NOSIG

Čas: 23:50 (22:50 UTC)

Předpověď počasí

Zpráva byla vytvořena před 5 hodinami a 50 minutami, v 17:00 UTC
Předpověď platná od 25 v 18 UTC do 26 v 24 UTC
Jihojihovýchodní vítr 8 kt
Viditelnost 10 km a více
Skoro jasno ve výšce 4000 ft
Změna
od 26 v 03 UTC do 26 v 05 UTC
Severoseverovýchodní vítr 14 kt
Dočasný
od 26 v 04 UTC do 26 v 14 UTC
dešťové přeháňky
Změna
od 26 v 10 UTC do 26 v 12 UTC
Severoseverovýchodní vítr 18 kt s nárazy do 28 kt

TAF: LIRF 251700Z 2518/2624 16008KT 9999 FEW040 BECMG 2603/2605 02014KT TEMPO 2604/2614 SHRA BECMG 2610/2612 02018G28KT

Stav a předpovědi počasí z více než 4 000 letišť (zprávy METAR a TAF).

Červené a žluté tečky na mapě představují dostupné meteorologické stanice.

Když kurzor umístíte na tečku, zobrazí se název stanice.

Pak kliknutím zobrazíte stav a předpověď počasí.

Chcete-li změnit mapu, kliknutím na zelené tlačítko se znaménkem +mapu přiblížíte, kliknutím na zelené tlačítko se znaménkem – mapu oddálíte a kliknutím na zelené šipky přejdete na sousední mapy.


METAR-TAF: